| time (UTC) | temp C | wind direction | speed KPH | gust KPH | rain 1hr cm | rain 24hr cm | rain mn cm | humidity % | barometer mb |
| 20260905183503 | 16 | 68 | 0.0 | 1.6 | 0.00 | 0.00 | 0.28 | 60 | 1019.7 |
| 20260905183004 | 16 | 83 | 1.6 | 3.2 | 0.00 | 0.00 | 0.28 | 59 | 1019.8 |
| 20260905182502 | 17 | 66 | 1.6 | 4.8 | 0.00 | 0.00 | 0.28 | 59 | 1019.6 |
| 20260905182003 | 17 | 86 | 3.2 | 3.2 | 0.00 | 0.00 | 0.28 | 58 | 1019.6 |
| 20260905181502 | 17 | 105 | 1.6 | 8.0 | 0.00 | 0.00 | 0.28 | 57 | 1019.5 |
| 20260905181003 | 17 | 30 | 1.6 | 4.8 | 0.00 | 0.00 | 0.28 | 57 | 1019.5 |
| 20260905180504 | 17 | 42 | 1.6 | 3.2 | 0.00 | 0.00 | 0.28 | 56 | 1019.6 |
| 20260905180004 | 17 | 46 | 1.6 | 1.6 | 0.00 | 0.00 | 0.28 | 56 | 1019.7 |
| 20260905175503 | 17 | 81 | 0.0 | 1.6 | 0.00 | 0.00 | 0.28 | 56 | 1019.5 |
| 20260905175005 | 17 | 67 | 0.0 | 4.8 | 0.00 | 0.00 | 0.28 | 56 | 1019.4 |
| 20260905174502 | 17 | 82 | 3.2 | 11.3 | 0.00 | 0.00 | 0.28 | 55 | 1019.4 |
| 20260905174003 | 17 | 281 | 0.0 | 1.6 | 0.00 | 0.00 | 0.28 | 55 | 1019.3 |
| 20260905173502 | 17 | 152 | 0.0 | 4.8 | 0.00 | 0.00 | 0.28 | 56 | 1019.4 |
| 20260905173004 | 17 | 66 | 0.0 | 3.2 | 0.00 | 0.00 | 0.28 | 55 | 1019.4 |
| 20260905172503 | 17 | 100 | 1.6 | 1.6 | 0.00 | 0.00 | 0.28 | 55 | 1019.2 |
| 20260905172003 | 18 | 104 | 1.6 | 3.2 | 0.00 | 0.00 | 0.28 | 56 | 1019.4 |
| 20260905171502 | 17 | 153 | 0.0 | 3.2 | 0.00 | 0.00 | 0.28 | 56 | 1019.4 |
| 20260905171002 | 18 | 58 | 0.0 | 1.6 | 0.00 | 0.00 | 0.28 | 55 | 1019.1 |
| 20260905170505 | 18 | 100 | 0.0 | 8.0 | 0.00 | 0.00 | 0.28 | 54 | 1019.1 |
| 20260905170003 | 18 | 119 | 1.6 | 3.2 | 0.00 | 0.00 | 0.28 | 54 | 1019.1 |
| 20260905165502 | 18 | 92 | 1.6 | 4.8 | 0.00 | 0.00 | 0.28 | 53 | 1018.9 |
| 20260905165003 | 18 | 68 | 1.6 | 8.0 | 0.00 | 0.00 | 0.28 | 52 | 1018.9 |
| 20260905164503 | 18 | 136 | 1.6 | 8.0 | 0.00 | 0.00 | 0.28 | 52 | 1018.8 |
| 20260905164003 | 18 | 48 | 6.4 | 9.7 | 0.00 | 0.00 | 0.28 | 51 | 1018.8 |
| 20260905163503 | 18 | 94 | 0.0 | 3.2 | 0.00 | 0.00 | 0.28 | 52 | 1018.7 |
| 20260905163003 | 19 | 352 | 1.6 | 11.3 | 0.00 | 0.00 | 0.28 | 51 | 1018.7 |
| 20260905162502 | 19 | 57 | 1.6 | 3.2 | 0.00 | 0.00 | 0.28 | 51 | 1018.7 |
| 20260905162003 | 20 | 109 | 0.0 | 9.7 | 0.00 | 0.00 | 0.28 | 51 | 1018.6 |
| 20260905161503 | 18 | 21 | 1.6 | 4.8 | 0.00 | 0.00 | 0.28 | 51 | 1018.4 |
| 20260905161005 | 18 | 120 | 8.0 | 11.3 | 0.00 | 0.00 | 0.28 | 51 | 1018.5 |
| 20260905160504 | 18 | 107 | 0.0 | 4.8 | 0.00 | 0.00 | 0.28 | 52 | 1018.5 |
| 20260905160004 | 19 | 39 | 1.6 | 14.5 | 0.00 | 0.00 | 0.28 | 50 | 1018.7 |
| 20260905155505 | 19 | 129 | 1.6 | 9.7 | 0.00 | 0.00 | 0.28 | 51 | 1018.4 |
| 20260905155003 | 20 | 320 | 1.6 | 9.7 | 0.00 | 0.00 | 0.28 | 49 | 1018.4 |
| 20260905154503 | 20 | 58 | 3.2 | 4.8 | 0.00 | 0.00 | 0.28 | 49 | 1018.5 |
| 20260905154003 | 20 | 146 | 6.4 | 11.3 | 0.00 | 0.00 | 0.28 | 48 | 1018.4 |
| 20260905153503 | 20 | 105 | 4.8 | 8.0 | 0.00 | 0.00 | 0.28 | 51 | 1018.2 |
| 20260905153003 | 19 | 153 | 11.3 | 16.1 | 0.00 | 0.00 | 0.28 | 51 | 1018.4 |
| 20260905152503 | 19 | 26 | 1.6 | 4.8 | 0.00 | 0.00 | 0.28 | 52 | 1018.4 |
| 20260905152002 | 20 | 106 | 3.2 | 14.5 | 0.00 | 0.00 | 0.28 | 52 | 1018.3 |
| 20260905151503 | 20 | 108 | 4.8 | 16.1 | 0.00 | 0.00 | 0.28 | 51 | 1018.4 |
| 20260905151003 | 20 | 47 | 8.0 | 14.5 | 0.00 | 0.00 | 0.28 | 49 | 1018.3 |
| 20260905150503 | 20 | 43 | 9.7 | 14.5 | 0.00 | 0.00 | 0.28 | 49 | 1018.1 |
| 20260905150002 | 21 | 69 | 11.3 | 16.1 | 0.00 | 0.00 | 0.28 | 48 | 1018.2 |
| 20260905145504 | 20 | 230 | 1.6 | 3.2 | 0.00 | 0.00 | 0.28 | 50 | 1018.3 |
| 20260905145003 | 20 | 19 | 1.6 | 9.7 | 0.00 | 0.00 | 0.28 | 49 | 1018.2 |
| 20260905144503 | 20 | 159 | 6.4 | 17.7 | 0.00 | 0.00 | 0.28 | 49 | 1018.3 |
| 20260905144003 | 20 | 111 | 8.0 | 20.9 | 0.00 | 0.00 | 0.28 | 50 | 1018.3 |
| 20260905143504 | 20 | 115 | 8.0 | 12.9 | 0.00 | 0.00 | 0.28 | 51 | 1018.3 |
| 20260905143004 | 20 | 57 | 8.0 | 11.3 | 0.00 | 0.00 | 0.28 | 49 | 1018.5 |
| 20260905142503 | 20 | 71 | 1.6 | 14.5 | 0.00 | 0.00 | 0.28 | 51 | 1018.3 |
| 20260905142003 | 20 | 167 | 4.8 | 11.3 | 0.00 | 0.00 | 0.28 | 51 | 1018.2 |
| 20260905141502 | 20 | 104 | 12.9 | 14.5 | 0.00 | 0.00 | 0.28 | 49 | 1018.6 |
| 20260905141004 | 21 | 23 | 8.0 | 11.3 | 0.00 | 0.00 | 0.28 | 51 | 1018.3 |
| 20260905140505 | 20 | 251 | 11.3 | 17.7 | 0.00 | 0.00 | 0.28 | 51 | 1018.0 |
| 20260905140002 | 20 | 75 | 3.2 | 12.9 | 0.00 | 0.00 | 0.28 | 52 | 1018.3 |
| 20260905135503 | 21 | 62 | 6.4 | 16.1 | 0.00 | 0.00 | 0.28 | 50 | 1018.2 |
| 20260905135004 | 21 | 134 | 3.2 | 12.9 | 0.00 | 0.00 | 0.28 | 51 | 1018.3 |
| 20260905134503 | 21 | 98 | 6.4 | 9.7 | 0.00 | 0.00 | 0.28 | 49 | 1018.3 |
| 20260905134003 | 20 | 58 | 3.2 | 29.0 | 0.00 | 0.00 | 0.28 | 53 | 1018.3 |
| 20260905133502 | 20 | 26 | 8.0 | 16.1 | 0.00 | 0.00 | 0.28 | 52 | 1018.3 |
| 20260905133004 | 21 | 119 | 8.0 | 12.9 | 0.00 | 0.00 | 0.28 | 50 | 1018.3 |
| 20260905132502 | 20 | 120 | 12.9 | 16.1 | 0.00 | 0.00 | 0.28 | 49 | 1018.4 |
| 20260905132004 | 20 | 138 | 8.0 | 16.1 | 0.00 | 0.00 | 0.28 | 50 | 1018.4 |
| 20260905131504 | 20 | 123 | 11.3 | 22.5 | 0.00 | 0.00 | 0.28 | 49 | 1018.6 |
| 20260905131003 | 21 | 117 | 11.3 | 16.1 | 0.00 | 0.00 | 0.28 | 47 | 1018.6 |
| 20260905130503 | 21 | 116 | 4.8 | 12.9 | 0.00 | 0.00 | 0.28 | 48 | 1018.4 |
| 20260905130004 | 21 | 107 | 8.0 | 12.9 | 0.00 | 0.00 | 0.28 | 49 | 1018.5 |
| 20260905125504 | 20 | 90 | 3.2 | 17.7 | 0.00 | 0.00 | 0.28 | 50 | 1018.4 |
| 20260905125002 | 21 | 52 | 4.8 | 14.5 | 0.00 | 0.00 | 0.28 | 51 | 1018.4 |
| 20260905124503 | 20 | 87 | 9.7 | 16.1 | 0.00 | 0.00 | 0.28 | 48 | 1018.4 |
| 20260905124002 | 21 | 96 | 8.0 | 12.9 | 0.00 | 0.00 | 0.28 | 50 | 1018.5 |
| 20260905123504 | 21 | 125 | 11.3 | 16.1 | 0.00 | 0.00 | 0.28 | 50 | 1018.4 |
| 20260905123005 | 21 | 143 | 8.0 | 12.9 | 0.00 | 0.00 | 0.28 | 50 | 1018.6 |
| 20260905122503 | 22 | 81 | 4.8 | 16.1 | 0.00 | 0.00 | 0.28 | 50 | 1018.3 |
| 20260905122003 | 21 | 151 | 3.2 | 12.9 | 0.00 | 0.00 | 0.28 | 51 | 1018.4 |
| 20260905121504 | 21 | 152 | 8.0 | 22.5 | 0.00 | 0.00 | 0.28 | 50 | 1018.5 |
| 20260905121003 | 20 | 135 | 6.4 | 17.7 | 0.00 | 0.00 | 0.28 | 53 | 1018.6 |
| 20260905120503 | 20 | 105 | 11.3 | 22.5 | 0.00 | 0.00 | 0.28 | 51 | 1018.5 |
| 20260905120005 | 20 | 27 | 14.5 | 17.7 | 0.00 | 0.00 | 0.28 | 51 | 1018.6 |
| 20260905115503 | 21 | 171 | 12.9 | 17.7 | 0.00 | 0.00 | 0.28 | 50 | 1018.6 |
| 20260905115002 | 21 | 131 | 6.4 | 11.3 | 0.00 | 0.00 | 0.28 | 51 | 1018.7 |
| 20260905114502 | 21 | 111 | 8.0 | 14.5 | 0.00 | 0.00 | 0.28 | 51 | 1018.6 |
| 20260905114006 | 20 | 72 | 4.8 | 12.9 | 0.00 | 0.00 | 0.28 | 55 | 1018.6 |
| 20260905113502 | 18 | 122 | 9.7 | 24.1 | 0.00 | 0.00 | 0.28 | 57 | 1018.6 |
| 20260905113002 | 20 | 122 | 8.0 | 17.7 | 0.00 | 0.00 | 0.28 | 54 | 1018.5 |
| 20260905112504 | 18 | 86 | 11.3 | 17.7 | 0.00 | 0.00 | 0.28 | 56 | 1018.5 |
| 20260905112004 | 18 | 150 | 6.4 | 11.3 | 0.00 | 0.00 | 0.28 | 56 | 1018.6 |
| 20260905111504 | 20 | 164 | 12.9 | 22.5 | 0.00 | 0.00 | 0.28 | 54 | 1018.3 |
| 20260905111003 | 20 | 118 | 6.4 | 20.9 | 0.00 | 0.00 | 0.28 | 55 | 1018.3 |
| 20260905110503 | 20 | 68 | 8.0 | 17.7 | 0.00 | 0.00 | 0.28 | 55 | 1018.3 |
| 20260905110003 | 20 | 88 | 6.4 | 11.3 | 0.00 | 0.00 | 0.28 | 56 | 1018.4 |
| 20260905105502 | 20 | 95 | 8.0 | 11.3 | 0.00 | 0.00 | 0.28 | 53 | 1018.4 |
| 20260905105004 | 21 | 124 | 4.8 | 9.7 | 0.00 | 0.00 | 0.28 | 52 | 1018.2 |
| 20260905104504 | 20 | 97 | 11.3 | 20.9 | 0.00 | 0.00 | 0.28 | 55 | 1018.5 |
| 20260905104002 | 20 | 332 | 1.6 | 20.9 | 0.00 | 0.00 | 0.28 | 58 | 1018.4 |
| 20260905103504 | 20 | 119 | 8.0 | 12.9 | 0.00 | 0.00 | 0.28 | 57 | 1018.3 |
| 20260905103003 | 20 | 11 | 8.0 | 22.5 | 0.00 | 0.00 | 0.28 | 55 | 1018.4 |
| 20260905102503 | 20 | 20 | 8.0 | 24.1 | 0.00 | 0.00 | 0.28 | 54 | 1018.3 |
| 20260905102004 | 20 | 154 | 12.9 | 17.7 | 0.00 | 0.00 | 0.28 | 52 | 1018.3 |
| 20260905101503 | 20 | 175 | 4.8 | 20.9 | 0.00 | 0.00 | 0.28 | 53 | 1018.4 |
| 20260905101005 | 20 | 37 | 6.4 | 20.9 | 0.00 | 0.00 | 0.28 | 56 | 1018.2 |
| 20260905100503 | 19 | 149 | 4.8 | 11.3 | 0.00 | 0.00 | 0.28 | 59 | 1018.3 |
| 20260905100004 | 20 | 131 | 4.8 | 14.5 | 0.00 | 0.00 | 0.28 | 57 | 1018.2 |
| 20260905095503 | 20 | 70 | 6.4 | 22.5 | 0.00 | 0.00 | 0.28 | 57 | 1018.1 |
| 20260905095005 | 19 | 74 | 11.3 | 17.7 | 0.00 | 0.00 | 0.28 | 59 | 1018.0 |
| 20260905094503 | 20 | 322 | 6.4 | 22.5 | 0.00 | 0.00 | 0.28 | 60 | 1018.0 |
| 20260905094003 | 19 | 77 | 9.7 | 24.1 | 0.00 | 0.00 | 0.28 | 61 | 1017.9 |
| 20260905093503 | 20 | 105 | 6.4 | 17.7 | 0.00 | 0.00 | 0.28 | 61 | 1018.0 |
| 20260905093004 | 19 | 64 | 9.7 | 20.9 | 0.00 | 0.00 | 0.28 | 61 | 1018.2 |
| 20260905092505 | 18 | 98 | 11.3 | 16.1 | 0.00 | 0.00 | 0.28 | 63 | 1018.2 |
| 20260905092004 | 18 | 87 | 14.5 | 20.9 | 0.00 | 0.00 | 0.28 | 65 | 1018.1 |
| 20260905091504 | 18 | 130 | 3.2 | 14.5 | 0.00 | 0.00 | 0.28 | 68 | 1018.3 |
| 20260905091003 | 18 | 151 | 4.8 | 16.1 | 0.00 | 0.00 | 0.28 | 68 | 1018.2 |
| 20260905090502 | 18 | 114 | 8.0 | 11.3 | 0.00 | 0.00 | 0.28 | 68 | 1018.1 |
| 20260905090003 | 18 | 132 | 8.0 | 14.5 | 0.00 | 0.00 | 0.28 | 69 | 1018.2 |
| 20260905085504 | 17 | 197 | 11.3 | 16.1 | 0.00 | 0.00 | 0.28 | 72 | 1018.1 |
| 20260905085003 | 17 | 59 | 1.6 | 9.7 | 0.00 | 0.00 | 0.28 | 76 | 1018.1 |
| 20260905084504 | 17 | 159 | 6.4 | 12.9 | 0.00 | 0.00 | 0.28 | 73 | 1018.1 |
| 20260905084003 | 18 | 49 | 8.0 | 16.1 | 0.00 | 0.00 | 0.28 | 71 | 1018.2 |
| 20260905083502 | 18 | 95 | 4.8 | 12.9 | 0.00 | 0.00 | 0.28 | 72 | 1018.0 |
| 20260905083003 | 18 | 141 | 4.8 | 12.9 | 0.00 | 0.00 | 0.28 | 74 | 1018.0 |
| 20260905082503 | 17 | 43 | 8.0 | 12.9 | 0.00 | 0.00 | 0.28 | 76 | 1018.0 |
| 20260905082005 | 17 | 88 | 3.2 | 17.7 | 0.00 | 0.00 | 0.28 | 74 | 1018.0 |
| 20260905081503 | 17 | 81 | 6.4 | 20.9 | 0.00 | 0.00 | 0.28 | 77 | 1018.0 |
| 20260905081004 | 17 | 72 | 3.2 | 17.7 | 0.00 | 0.00 | 0.28 | 78 | 1018.0 |
| 20260905080503 | 17 | 111 | 3.2 | 11.3 | 0.00 | 0.00 | 0.28 | 79 | 1017.8 |
| 20260905080002 | 17 | 70 | 4.8 | 12.9 | 0.00 | 0.00 | 0.28 | 80 | 1017.7 |
| 20260905075502 | 17 | 64 | 9.7 | 22.5 | 0.00 | 0.00 | 0.28 | 79 | 1017.8 |
| 20260905075004 | 17 | 120 | 8.0 | 17.7 | 0.00 | 0.00 | 0.28 | 79 | 1017.7 |
| 20260905074502 | 17 | 71 | 6.4 | 12.9 | 0.00 | 0.00 | 0.28 | 78 | 1017.7 |
| 20260905074004 | 17 | 92 | 4.8 | 17.7 | 0.00 | 0.00 | 0.28 | 79 | 1017.8 |
| 20260905073502 | 16 | 20 | 6.4 | 12.9 | 0.00 | 0.00 | 0.28 | 80 | 1017.6 |
| 20260905073003 | 16 | 79 | 6.4 | 16.1 | 0.00 | 0.00 | 0.28 | 79 | 1017.6 |
| 20260905072503 | 16 | 40 | 4.8 | 9.7 | 0.00 | 0.00 | 0.28 | 81 | 1017.7 |
| 20260905072003 | 16 | 30 | 4.8 | 11.3 | 0.00 | 0.00 | 0.28 | 82 | 1017.7 |
| 20260905071502 | 16 | 115 | 4.8 | 12.9 | 0.00 | 0.00 | 0.28 | 83 | 1017.6 |
| 20260905071004 | 16 | 39 | 3.2 | 11.3 | 0.00 | 0.00 | 0.28 | 85 | 1017.5 |
| 20260905070503 | 16 | 48 | 8.0 | 11.3 | 0.00 | 0.00 | 0.28 | 86 | 1017.5 |
| 20260905070004 | 15 | 89 | 1.6 | 4.8 | 0.00 | 0.00 | 0.28 | 88 | 1017.6 |
| 20260905065504 | 15 | 199 | 4.8 | 4.8 | 0.00 | 0.00 | 0.28 | 88 | 1017.6 |
| 20260905065003 | 15 | 94 | 4.8 | 9.7 | 0.00 | 0.00 | 0.28 | 88 | 1017.5 |
| 20260905064506 | 15 | 54 | 4.8 | 9.7 | 0.00 | 0.00 | 0.28 | 88 | 1017.3 |
| 20260905064004 | 15 | 260 | 1.6 | 8.0 | 0.00 | 0.00 | 0.28 | 89 | 1017.3 |
| 20260905063502 | 15 | 104 | 6.4 | 9.7 | 0.00 | 0.00 | 0.28 | 89 | 1017.4 |
| 20260905063003 | 15 | 149 | 4.8 | 9.7 | 0.00 | 0.00 | 0.28 | 90 | 1017.3 |
| 20260905062503 | 15 | 38 | 4.8 | 11.3 | 0.00 | 0.00 | 0.28 | 90 | 1017.1 |
| 20260905062003 | 15 | 47 | 4.8 | 8.0 | 0.00 | 0.00 | 0.28 | 91 | 1017.0 |
| 20260905061504 | 15 | 50 | 6.4 | 9.7 | 0.00 | 0.00 | 0.28 | 91 | 1016.8 |
| 20260905061003 | 15 | 23 | 4.8 | 9.7 | 0.00 | 0.00 | 0.28 | 92 | 1016.8 |
| 20260905060502 | 15 | 79 | 4.8 | 9.7 | 0.00 | 0.00 | 0.28 | 92 | 1016.9 |
| 20260905060006 | 15 | 86 | 1.6 | 4.8 | 0.00 | 0.00 | 0.28 | 92 | 1017.0 |
| 20260905055503 | 15 | 130 | 4.8 | 9.7 | 0.00 | 0.00 | 0.28 | 92 | 1016.9 |
| 20260905055003 | 15 | 90 | 4.8 | 12.9 | 0.00 | 0.00 | 0.28 | 92 | 1016.8 |
| 20260905054502 | 15 | 88 | 4.8 | 9.7 | 0.00 | 0.00 | 0.28 | 92 | 1016.9 |
| 20260905054002 | 15 | 69 | 1.6 | 9.7 | 0.00 | 0.00 | 0.28 | 92 | 1016.9 |
| 20260905053504 | 15 | 89 | 3.2 | 12.9 | 0.00 | 0.00 | 0.28 | 93 | 1016.8 |
| 20260905053004 | 15 | 99 | 4.8 | 4.8 | 0.00 | 0.00 | 0.28 | 93 | 1016.9 |
| 20260905052503 | 15 | 222 | 1.6 | 4.8 | 0.00 | 0.00 | 0.28 | 93 | 1016.6 |
| 20260905052003 | 15 | 22 | 6.4 | 9.7 | 0.00 | 0.00 | 0.28 | 92 | 1016.7 |
| 20260905051503 | 15 | 109 | 4.8 | 9.7 | 0.00 | 0.00 | 0.28 | 93 | 1016.4 |
| 20260905051003 | 15 | 140 | 0.0 | 4.8 | 0.00 | 0.00 | 0.28 | 93 | 1016.4 |
| 20260905050503 | 15 | 112 | 3.2 | 4.8 | 0.00 | 0.00 | 0.28 | 93 | 1016.1 |
| 20260905050004 | 15 | 81 | 4.8 | 4.8 | 0.00 | 0.00 | 0.28 | 93 | 1016.1 |
| 20260905045502 | 15 | 83 | 3.2 | 16.1 | 0.00 | 0.00 | 0.28 | 93 | 1016.0 |
| 20260905045002 | 15 | 87 | 6.4 | 11.3 | 0.00 | 0.00 | 0.28 | 93 | 1016.0 |
| 20260905044503 | 15 | 105 | 3.2 | 12.9 | 0.00 | 0.00 | 0.28 | 93 | 1016.0 |
| 20260905044003 | 15 | 65 | 1.6 | 11.3 | 0.00 | 0.00 | 0.28 | 93 | 1016.0 |
| 20260905043505 | 15 | 25 | 1.6 | 8.0 | 0.00 | 0.00 | 0.28 | 93 | 1016.0 |
| 20260905043002 | 15 | 78 | 1.6 | 12.9 | 0.00 | 0.00 | 0.28 | 93 | 1015.6 |
| 20260905042503 | 15 | 78 | 4.8 | 9.7 | 0.00 | 0.00 | 0.28 | 94 | 1015.8 |
| 20260905042003 | 15 | 162 | 4.8 | 9.7 | 0.00 | 0.00 | 0.28 | 94 | 1015.6 |
| 20260905041503 | 15 | 51 | 3.2 | 9.7 | 0.00 | 0.00 | 0.28 | 94 | 1015.6 |
| 20260905041003 | 15 | 119 | 3.2 | 8.0 | 0.00 | 0.00 | 0.28 | 95 | 1015.8 |
| 20260905040503 | 15 | 81 | 9.7 | 12.9 | 0.00 | 0.00 | 0.28 | 95 | 1015.6 |
| 20260905040002 | 15 | 154 | 8.0 | 14.5 | 0.03 | 0.00 | 0.28 | 95 | 1015.2 |
| 20260905035502 | 15 | 83 | 4.8 | 11.3 | 0.03 | 0.00 | 0.28 | 96 | 1015.2 |
| 20260905035003 | 15 | 86 | 3.2 | 4.8 | 0.03 | 0.00 | 0.28 | 96 | 1015.2 |
| 20260905034503 | 15 | 65 | 6.4 | 12.9 | 0.03 | 0.00 | 0.28 | 97 | 1015.3 |
| 20260905034003 | 15 | 103 | 6.4 | 11.3 | 0.03 | 0.00 | 0.28 | 97 | 1015.3 |
| 20260905033504 | 15 | 68 | 4.8 | 12.9 | 0.03 | 0.00 | 0.28 | 97 | 1015.3 |
| 20260905033003 | 15 | 79 | 3.2 | 11.3 | 0.03 | 0.00 | 0.28 | 97 | 1015.2 |
| 20260905032503 | 15 | 123 | 6.4 | 12.9 | 0.03 | 0.00 | 0.28 | 98 | 1014.8 |
| 20260905032003 | 15 | 71 | 1.6 | 8.0 | 0.03 | 0.00 | 0.28 | 98 | 1014.7 |
| 20260905031503 | 15 | 86 | 4.8 | 4.8 | 0.03 | 0.00 | 0.28 | 98 | 1014.2 |
| 20260905031003 | 15 | 49 | 4.8 | 9.7 | 0.03 | 0.00 | 0.28 | 98 | 1014.5 |
| 20260905030503 | 15 | 152 | 6.4 | 11.3 | 0.03 | 0.00 | 0.28 | 98 | 1014.7 |
| 20260905030004 | 15 | 349 | 1.6 | 8.0 | 0.00 | 0.00 | 0.25 | 98 | 1014.7 |
| 20260905025502 | 15 | 122 | 1.6 | 4.8 | 0.00 | 0.00 | 0.25 | 98 | 1014.6 |
| 20260905025003 | 15 | 315 | 1.6 | 4.8 | 0.00 | 0.00 | 0.25 | 98 | 1014.5 |
| 20260905024503 | 15 | 73 | 1.6 | 4.8 | 0.00 | 0.00 | 0.25 | 98 | 1014.9 |
| 20260905024003 | 15 | 69 | 0.0 | 3.2 | 0.00 | 0.00 | 0.25 | 98 | 1014.3 |
| 20260905023503 | 15 | 105 | 3.2 | 8.0 | 0.00 | 0.00 | 0.25 | 98 | 1014.2 |
| 20260905023002 | 15 | 66 | 1.6 | 3.2 | 0.00 | 0.00 | 0.25 | 97 | 1014.0 |
| 20260905022503 | 15 | 63 | 1.6 | 3.2 | 0.00 | 0.00 | 0.25 | 97 | 1014.2 |
| 20260905022004 | 15 | 122 | 4.8 | 8.0 | 0.00 | 0.00 | 0.25 | 97 | 1014.5 |
| 20260905021504 | 15 | 143 | 1.6 | 9.7 | 0.00 | 0.00 | 0.25 | 97 | 1014.3 |
| 20260905021003 | 15 | 98 | 4.8 | 11.3 | 0.00 | 0.00 | 0.25 | 97 | 1014.4 |
| 20260905020503 | 15 | 338 | 4.8 | 14.5 | 0.00 | 0.00 | 0.25 | 97 | 1014.4 |
| 20260905020005 | 15 | 112 | 4.8 | 8.0 | 0.00 | 0.00 | 0.25 | 97 | 1014.6 |
| 20260905015504 | 15 | 148 | 1.6 | 9.7 | 0.00 | 0.00 | 0.25 | 97 | 1014.7 |
| 20260905015003 | 15 | 116 | 8.0 | 11.3 | 0.00 | 0.00 | 0.25 | 97 | 1015.1 |
| 20260905014503 | 15 | 126 | 3.2 | 9.7 | 0.03 | 0.00 | 0.25 | 97 | 1014.8 |
| 20260905014003 | 15 | 51 | 3.2 | 12.9 | 0.03 | 0.00 | 0.25 | 97 | 1014.4 |
| 20260905013503 | 15 | 98 | 6.4 | 9.7 | 0.03 | 0.00 | 0.25 | 97 | 1014.7 |
| 20260905013002 | 15 | 96 | 4.8 | 8.0 | 0.03 | 0.00 | 0.25 | 97 | 1014.2 |
| 20260905012503 | 15 | 72 | 1.6 | 4.8 | 0.03 | 0.00 | 0.25 | 97 | 1014.5 |
| 20260905012003 | 15 | 55 | 4.8 | 20.9 | 0.03 | 0.00 | 0.25 | 97 | 1014.4 |
| 20260905011503 | 15 | 61 | 1.6 | 9.7 | 0.03 | 0.00 | 0.25 | 97 | 1014.2 |
| 20260905011003 | 15 | 132 | 1.6 | 4.8 | 0.05 | 0.00 | 0.25 | 98 | 1014.0 |
| 20260905010502 | 15 | 28 | 3.2 | 11.3 | 0.05 | 0.00 | 0.25 | 98 | 1013.9 |
| 20260905010007 | 15 | 123 | 0.0 | 4.8 | 0.05 | 0.00 | 0.25 | 98 | 1014.0 |
| 20260905005502 | 15 | 34 | 1.6 | 8.0 | 0.05 | 0.00 | 0.25 | 97 | 1014.0 |
| 20260905005004 | 15 | 44 | 0.0 | 8.0 | 0.05 | 0.00 | 0.25 | 97 | 1014.0 |
| 20260905004504 | 15 | 77 | 3.2 | 12.9 | 0.03 | 0.00 | 0.23 | 97 | 1014.1 |
| 20260905004003 | 15 | 158 | 3.2 | 9.7 | 0.03 | 0.00 | 0.23 | 97 | 1014.3 |
| 20260905003504 | 15 | 183 | 1.6 | 4.8 | 0.03 | 0.00 | 0.23 | 97 | 1014.1 |
| 20260905003003 | 15 | 123 | 4.8 | 9.7 | 0.03 | 0.00 | 0.23 | 97 | 1014.2 |
| 20260905002504 | 15 | 90 | 4.8 | 11.3 | 0.05 | 0.00 | 0.23 | 97 | 1014.1 |
| 20260905002003 | 15 | 100 | 1.6 | 4.8 | 0.05 | 0.00 | 0.23 | 97 | 1014.0 |
| 20260905001503 | 15 | 137 | 1.6 | 8.0 | 0.10 | 0.00 | 0.20 | 97 | 1014.4 |
| 20260905001003 | 15 | 34 | 3.2 | 9.7 | 0.10 | 0.00 | 0.20 | 97 | 1014.2 |
| 20260905000504 | 15 | 32 | 4.8 | 8.0 | 0.10 | 0.00 | 0.20 | 96 | 1014.1 |
| 20260905000002 | 15 | 145 | 3.2 | 8.0 | 0.10 | 0.00 | 0.20 | 96 | 1013.9 |
| 20260904235503 | 15 | 82 | 1.6 | 9.7 | 0.13 | 0.00 | 0.20 | 96 | 1013.8 |
| 20260904235003 | 15 | 52 | 3.2 | 4.8 | 0.15 | 0.00 | 0.20 | 96 | 1013.7 |
| 20260904234504 | 15 | 83 | 1.6 | 4.8 | 0.15 | 0.00 | 0.20 | 96 | 1013.8 |
| 20260904234003 | 15 | 100 | 1.6 | 4.8 | 0.15 | 0.00 | 0.20 | 96 | 1014.0 |
| 20260904233504 | 15 | 94 | 6.4 | 9.7 | 0.18 | 0.00 | 0.20 | 96 | 1014.2 |
| 20260904233004 | 15 | 109 | 8.0 | 11.3 | 0.18 | 0.00 | 0.18 | 96 | 1013.9 |
| 20260904232503 | 15 | 6 | 1.6 | 3.2 | 0.18 | 0.00 | 0.18 | 95 | 1013.8 |
| 20260904232002 | 15 | 51 | 1.6 | 11.3 | 0.15 | 0.00 | 0.15 | 94 | 1014.2 |
| 20260904231504 | 15 | 89 | 1.6 | 9.7 | 0.10 | 0.00 | 0.10 | 94 | 1013.8 |
| 20260904231003 | 15 | 40 | 1.6 | 4.8 | 0.10 | 0.00 | 0.10 | 94 | 1013.6 |
| 20260904230504 | 15 | 102 | 3.2 | 4.8 | 0.10 | 0.00 | 0.10 | 93 | 1013.8 |
| 20260904230005 | 15 | 25 | 1.6 | 12.9 | 0.10 | 0.00 | 0.10 | 92 | 1013.6 |
| 20260904225504 | 15 | 68 | 1.6 | 9.7 | 0.08 | 0.00 | 0.08 | 92 | 1013.8 |
| 20260904225003 | 16 | 107 | 4.8 | 9.7 | 0.05 | 0.00 | 0.05 | 91 | 1013.5 |
| 20260904224503 | 16 | 131 | 3.2 | 8.0 | 0.05 | 0.00 | 0.05 | 90 | 1013.2 |
| 20260904224004 | 16 | 212 | 6.4 | 11.3 | 0.05 | 0.00 | 0.05 | 88 | 1013.1 |
| 20260904223503 | 17 | 85 | 3.2 | 8.0 | 0.03 | 0.00 | 0.03 | 85 | 1013.1 |
| 20260904223003 | 17 | 89 | 8.0 | 11.3 | 0.00 | 0.00 | 0.00 | 83 | 1013.1 |
| 20260904222502 | 17 | 112 | 6.4 | 9.7 | 0.00 | 0.00 | 0.00 | 83 | 1012.7 |
| 20260904222003 | 17 | 262 | 4.8 | 9.7 | 0.00 | 0.00 | 0.00 | 84 | 1012.9 |
| 20260904221502 | 17 | 159 | 4.8 | 9.7 | 0.00 | 0.00 | 0.00 | 85 | 1012.6 |
| 20260904221004 | 17 | 1 | 1.6 | 12.9 | 0.00 | 0.00 | 0.00 | 85 | 1012.6 |
| 20260904220003 | 17 | 135 | 3.2 | 12.9 | 0.00 | 0.00 | 0.00 | 84 | 1012.5 |
| 20260904215504 | 18 | 108 | 3.2 | 11.3 | 0.00 | 0.00 | 0.00 | 83 | 1012.8 |
| 20260904215002 | 18 | 131 | 3.2 | 35.4 | 0.00 | 0.00 | 0.00 | 81 | 1012.9 |
| 20260904214503 | 19 | 124 | 12.9 | 17.7 | 0.00 | 0.00 | 0.00 | 76 | 1012.8 |
| 20260904214002 | 19 | 105 | 8.0 | 12.9 | 0.00 | 0.00 | 0.00 | 76 | 1012.7 |
| 20260904213503 | 19 | 108 | 3.2 | 9.7 | 0.00 | 0.00 | 0.00 | 75 | 1012.4 |
| 20260904213003 | 20 | 84 | 3.2 | 9.7 | 0.00 | 0.00 | 0.00 | 74 | 1012.2 |
| 20260904212502 | 20 | 149 | 4.8 | 9.7 | 0.00 | 0.00 | 0.00 | 73 | 1012.3 |
| 20260904212003 | 20 | 141 | 8.0 | 16.1 | 0.00 | 0.00 | 0.00 | 73 | 1012.3 |
| 20260904211502 | 20 | 160 | 4.8 | 11.3 | 0.00 | 0.00 | 0.00 | 74 | 1012.2 |
| 20260904211004 | 21 | 91 | 6.4 | 12.9 | 0.00 | 0.00 | 0.00 | 75 | 1012.1 |
| 20260904210503 | 21 | 99 | 6.4 | 9.7 | 0.00 | 0.00 | 0.00 | 73 | 1012.2 |
| 20260904210003 | 22 | 90 | 11.3 | 22.5 | 0.00 | 0.00 | 0.00 | 72 | 1012.1 |
| 20260904205502 | 22 | 133 | 6.4 | 16.1 | 0.00 | 0.00 | 0.00 | 71 | 1012.0 |
| 20260904205002 | 22 | 132 | 12.9 | 17.7 | 0.00 | 0.00 | 0.00 | 69 | 1012.2 |
| 20260904204504 | 23 | 88 | 4.8 | 8.0 | 0.00 | 0.00 | 0.00 | 66 | 1011.6 |
| 20260904204004 | 23 | 42 | 11.3 | 27.4 | 0.00 | 0.00 | 0.00 | 64 | 1011.0 |
| 20260904203502 | 23 | 102 | 6.4 | 9.7 | 0.00 | 0.00 | 0.00 | 63 | 1011.0 |
| 20260904203003 | 22 | 353 | 0.0 | 4.8 | 0.00 | 0.00 | 0.00 | 65 | 1011.0 |
| 20260904202502 | 22 | 137 | 1.6 | 4.8 | 0.00 | 0.00 | 0.00 | 64 | 1010.7 |
| 20260904202004 | 23 | 271 | 3.2 | 4.8 | 0.00 | 0.00 | 0.00 | 64 | 1010.4 |
| 20260904201503 | 22 | 31 | 3.2 | 9.7 | 0.00 | 0.00 | 0.00 | 64 | 1010.4 |
| 20260904201003 | 22 | 37 | 6.4 | 12.9 | 0.00 | 0.00 | 0.00 | 66 | 1010.4 |
| 20260904200502 | 22 | 56 | 4.8 | 8.0 | 0.00 | 0.00 | 0.00 | 68 | 1010.4 |
| 20260904200004 | 22 | 99 | 3.2 | 11.3 | 0.00 | 0.00 | 0.00 | 69 | 1010.5 |
| 20260904195503 | 22 | 101 | 3.2 | 9.7 | 0.00 | 0.00 | 0.00 | 69 | 1010.4 |
| 20260904195002 | 22 | 32 | 6.4 | 9.7 | 0.00 | 0.00 | 0.00 | 66 | 1010.1 |
| 20260904194502 | 22 | 44 | 6.4 | 9.7 | 0.00 | 0.00 | 0.00 | 66 | 1010.3 |
| 20260904194002 | 22 | 48 | 3.2 | 12.9 | 0.00 | 0.00 | 0.00 | 66 | 1010.5 |
| 20260904193503 | 22 | 109 | 4.8 | 4.8 | 0.00 | 0.00 | 0.00 | 67 | 1010.6 |
| 20260904193004 | 22 | 99 | 1.6 | 8.0 | 0.00 | 0.00 | 0.00 | 67 | 1010.7 |
| 20260904192503 | 22 | 345 | 1.6 | 4.8 | 0.00 | 0.00 | 0.00 | 67 | 1010.5 |
| 20260904192004 | 22 | 46 | 1.6 | 3.2 | 0.00 | 0.00 | 0.00 | 67 | 1010.5 |
| 20260904191504 | 22 | 3 | 3.2 | 9.7 | 0.00 | 0.00 | 0.00 | 67 | 1010.6 |
| 20260904191004 | 22 | 55 | 3.2 | 8.0 | 0.00 | 0.00 | 0.00 | 68 | 1010.5 |
| 20260904190503 | 22 | 42 | 1.6 | 11.3 | 0.00 | 0.00 | 0.00 | 68 | 1010.5 |
| 20260904190005 | 22 | 32 | 6.4 | 11.3 | 0.00 | 0.00 | 0.00 | 68 | 1010.4 |
| 20260904185502 | 21 | 17 | 3.2 | 11.3 | 0.00 | 0.00 | 0.00 | 68 | 1010.8 |
| 20260904185004 | 21 | 76 | 1.6 | 8.0 | 0.00 | 0.00 | 0.00 | 69 | 1010.6 |
| 20260904184504 | 22 | 53 | 3.2 | 4.8 | 0.00 | 0.00 | 0.00 | 69 | 1010.5 |
| 20260904184003 | 21 | 53 | 1.6 | 3.2 | 0.00 | 0.00 | 0.00 | 69 | 1010.8 |